createdAt,value
2023-01-18T00:01:01.769Z,100.00
2023-01-18T00:02:04.950Z,100.00
2023-01-18T00:03:13.449Z,100.00
2023-01-18T00:04:16.840Z,100.00
2023-01-18T00:05:19.915Z,100.00
2023-01-18T00:06:23.159Z,100.00
2023-01-18T00:07:26.429Z,100.00
2023-01-18T00:08:32.153Z,100.00
2023-01-18T00:09:35.127Z,100.00
2023-01-18T00:10:38.363Z,100.00
2023-01-18T00:11:41.262Z,100.00
2023-01-18T00:12:44.443Z,100.00
2023-01-18T00:13:48.295Z,100.00
2023-01-18T00:14:51.150Z,100.00
2023-01-18T00:15:54.305Z,100.00
2023-01-18T00:17:01.307Z,100.00
2023-01-18T00:18:05.270Z,100.00
2023-01-18T00:19:13.379Z,100.00
2023-01-18T00:20:17.060Z,100.00
2023-01-18T00:21:20.551Z,100.00
2023-01-18T00:22:23.605Z,100.00
2023-01-18T00:23:26.614Z,100.00
2023-01-18T00:24:29.527Z,100.00
2023-01-18T00:25:32.564Z,100.00
2023-01-18T00:26:35.533Z,100.00
2023-01-18T00:27:39.045Z,100.00
2023-01-18T00:28:42.815Z,100.00
2023-01-18T00:29:45.751Z,100.00
2023-01-18T00:30:49.143Z,100.00
2023-01-18T00:31:52.173Z,100.00
2023-01-18T00:32:59.531Z,100.00
2023-01-18T00:34:02.819Z,100.00
2023-01-18T00:35:08.172Z,100.00
2023-01-18T00:36:12.905Z,100.00
2023-01-18T00:37:15.873Z,100.00
2023-01-18T00:38:19.535Z,100.00
2023-01-18T00:39:22.772Z,100.00
2023-01-18T00:40:29.120Z,100.00
2023-01-18T00:41:32.097Z,100.00
2023-01-18T00:42:54.083Z,100.00
2023-01-18T00:43:57.139Z,100.00
2023-01-18T00:45:00.113Z,100.00
2023-01-18T00:46:03.242Z,100.00
2023-01-18T00:47:06.335Z,100.00
2023-01-18T00:48:09.615Z,100.00
2023-01-18T00:49:12.733Z,100.00
2023-01-18T00:50:17.436Z,100.00
2023-01-18T00:51:23.618Z,100.00
2023-01-18T00:52:26.698Z,100.00
2023-01-18T00:53:30.222Z,100.00
2023-01-18T00:54:33.220Z,100.00
2023-01-18T00:55:36.104Z,100.00
2023-01-18T00:56:39.422Z,100.00
2023-01-18T00:57:43.308Z,100.00
2023-01-18T00:58:46.515Z,100.00
2023-01-18T00:59:49.550Z,100.00
2023-01-18T01:00:53.784Z,100.00
2023-01-18T01:01:57.258Z,100.00
2023-01-18T01:03:00.921Z,100.00
2023-01-18T01:04:23.242Z,100.00
2023-01-18T01:05:46.220Z,100.00
2023-01-18T01:06:53.255Z,100.00
2023-01-18T01:07:56.223Z,100.00
2023-01-18T01:08:59.146Z,100.00
2023-01-18T01:10:09.195Z,100.00
2023-01-18T01:11:13.469Z,100.00
2023-01-18T01:12:35.255Z,100.00
2023-01-18T01:13:57.895Z,100.00
2023-01-18T01:15:19.869Z,100.00
2023-01-18T01:16:42.483Z,100.00
2023-01-18T01:17:52.234Z,100.00
2023-01-18T01:19:14.913Z,100.00
2023-01-18T01:20:36.739Z,100.00
2023-01-18T01:21:58.992Z,100.00
2023-01-18T01:23:47.539Z,100.00
2023-01-18T01:25:08.640Z,100.00
2023-01-18T01:26:12.916Z,100.00
2023-01-18T01:27:16.029Z,100.00
2023-01-18T01:28:19.022Z,100.00
2023-01-18T01:29:22.541Z,100.00
2023-01-18T01:30:27.197Z,100.00
2023-01-18T01:31:30.145Z,100.00
2023-01-18T01:32:33.146Z,100.00
2023-01-18T01:33:36.372Z,100.00
2023-01-18T01:34:39.610Z,100.00
2023-01-18T01:35:42.476Z,100.00
2023-01-18T01:36:45.544Z,100.00
2023-01-18T01:37:48.669Z,100.00
2023-01-18T01:38:52.233Z,100.00
2023-01-18T01:39:55.367Z,100.00
2023-01-18T01:41:05.379Z,100.00
2023-01-18T01:42:12.110Z,100.00
2023-01-18T01:43:15.193Z,100.00
2023-01-18T01:44:18.218Z,100.00
2023-01-18T01:45:26.363Z,100.00
2023-01-18T01:46:56.340Z,100.00
2023-01-18T01:47:59.947Z,100.00
2023-01-18T01:49:10.621Z,100.00
2023-01-18T01:50:33.230Z,100.00
2023-01-18T01:51:40.558Z,100.00
2023-01-18T01:52:46.099Z,100.00
2023-01-18T01:53:51.278Z,100.00
2023-01-18T01:55:05.315Z,100.00
2023-01-18T01:56:09.910Z,100.00
2023-01-18T01:57:26.459Z,100.00
2023-01-18T01:58:30.151Z,100.00
2023-01-18T01:59:39.678Z,100.00
2023-01-18T02:00:43.968Z,100.00
2023-01-18T02:01:47.142Z,100.00
2023-01-18T02:02:56.361Z,100.00
2023-01-18T02:04:02.014Z,100.00
2023-01-18T02:05:07.504Z,100.00
2023-01-18T02:06:32.117Z,100.00
2023-01-18T02:07:36.115Z,100.00
2023-01-18T02:08:39.269Z,100.00
2023-01-18T02:09:42.267Z,100.00
2023-01-18T02:10:45.305Z,100.00
2023-01-18T02:11:48.266Z,100.00
2023-01-18T02:12:55.160Z,100.00
2023-01-18T02:14:03.129Z,100.00
2023-01-18T02:15:07.248Z,100.00
2023-01-18T02:16:22.502Z,100.00
2023-01-18T02:17:46.663Z,100.00
2023-01-18T02:19:16.144Z,100.00
2023-01-18T02:20:38.965Z,100.00
2023-01-18T02:21:47.516Z,100.00
2023-01-18T02:23:27.550Z,100.00
2023-01-18T02:24:30.593Z,100.00
2023-01-18T02:25:45.694Z,100.00
2023-01-18T02:27:32.313Z,100.00
2023-01-18T02:28:40.051Z,100.00
2023-01-18T02:30:01.537Z,100.00
2023-01-18T02:31:38.176Z,100.00
2023-01-18T02:33:19.138Z,100.00
2023-01-18T02:34:36.633Z,100.00
2023-01-18T02:35:50.184Z,100.00
2023-01-18T02:37:03.578Z,100.00
2023-01-18T02:38:14.246Z,100.00
2023-01-18T02:39:32.395Z,100.00
2023-01-18T02:40:57.706Z,100.00
2023-01-18T02:42:28.280Z,100.00
2023-01-18T02:43:52.096Z,100.00
2023-01-18T02:45:14.588Z,100.00
2023-01-18T02:46:34.278Z,100.00
2023-01-18T02:47:37.941Z,100.00
2023-01-18T02:48:45.593Z,100.00
2023-01-18T02:49:48.894Z,100.00
2023-01-18T02:50:52.177Z,100.00
2023-01-18T02:52:07.936Z,100.00
2023-01-18T02:53:14.429Z,100.00
2023-01-18T02:54:24.784Z,100.00
2023-01-18T02:55:52.238Z,100.00
2023-01-18T02:56:56.654Z,100.00
2023-01-18T02:58:24.913Z,100.00
2023-01-18T02:59:39.512Z,100.00
2023-01-18T03:00:48.047Z,100.00
2023-01-18T03:01:56.200Z,100.00
2023-01-18T03:03:00.182Z,100.00
2023-01-18T03:04:13.892Z,100.00
2023-01-18T03:05:18.676Z,100.00
2023-01-18T03:06:25.147Z,100.00
2023-01-18T03:08:26.809Z,100.00
2023-01-18T03:09:33.033Z,100.00
2023-01-18T03:10:52.056Z,100.00
2023-01-18T03:12:06.564Z,100.00
2023-01-18T03:13:22.714Z,100.00
2023-01-18T03:15:16.028Z,100.00
2023-01-18T03:16:25.660Z,100.00
2023-01-18T03:17:36.445Z,100.00
2023-01-18T03:19:02.784Z,100.00
2023-01-18T03:20:12.485Z,100.00
2023-01-18T03:21:15.748Z,100.00
2023-01-18T03:22:18.918Z,100.00
2023-01-18T03:23:41.036Z,100.00
2023-01-18T03:24:46.257Z,100.00
2023-01-18T03:25:52.316Z,100.00
2023-01-18T03:27:17.780Z,100.00
2023-01-18T03:28:51.131Z,100.00
2023-01-18T03:30:13.715Z,100.00
2023-01-18T03:31:53.461Z,100.00
2023-01-18T03:33:15.061Z,100.00
2023-01-18T03:34:57.656Z,100.00
2023-01-18T03:36:01.459Z,100.00
2023-01-18T03:37:11.181Z,100.00
2023-01-18T03:38:15.904Z,100.00
2023-01-18T03:39:38.062Z,100.00
2023-01-18T03:40:41.069Z,100.00
2023-01-18T03:41:49.935Z,100.00
2023-01-18T03:43:15.196Z,100.00
2023-01-18T03:44:29.678Z,100.00
2023-01-18T03:45:46.509Z,100.00
2023-01-18T03:46:49.898Z,100.00
2023-01-18T03:47:53.337Z,100.00
2023-01-18T03:48:57.378Z,100.00
2023-01-18T03:50:00.431Z,100.00
2023-01-18T03:51:15.349Z,100.00
2023-01-18T03:52:24.266Z,100.00
2023-01-18T03:53:40.495Z,100.00
2023-01-18T03:54:46.169Z,100.00
2023-01-18T03:55:54.063Z,100.00
2023-01-18T03:57:03.450Z,100.00
2023-01-18T03:58:11.408Z,100.00
2023-01-18T03:59:14.763Z,100.00
2023-01-18T04:00:18.283Z,100.00
2023-01-18T04:01:22.021Z,100.00
2023-01-18T04:02:27.764Z,100.00
2023-01-18T04:03:35.309Z,100.00
2023-01-18T04:04:42.058Z,100.00
2023-01-18T04:05:45.041Z,100.00
2023-01-18T04:06:47.943Z,100.00
2023-01-18T04:07:51.224Z,100.00
2023-01-18T04:08:54.290Z,100.00
2023-01-18T04:09:57.383Z,100.00
2023-01-18T04:11:00.440Z,100.00
2023-01-18T04:12:03.418Z,100.00
2023-01-18T04:13:06.336Z,100.00
2023-01-18T04:14:09.388Z,100.00
2023-01-18T04:15:16.059Z,100.00
2023-01-18T04:16:19.112Z,100.00
2023-01-18T04:17:22.643Z,100.00
2023-01-18T04:18:26.222Z,100.00
2023-01-18T04:19:29.197Z,100.00
2023-01-18T04:20:32.331Z,100.00
2023-01-18T04:21:35.918Z,100.00
2023-01-18T04:22:38.879Z,100.00
2023-01-18T04:23:41.920Z,100.00
2023-01-18T04:24:44.974Z,100.00
2023-01-18T04:25:50.718Z,100.00
2023-01-18T04:26:53.669Z,100.00
2023-01-18T04:29:05.727Z,100.00
2023-01-18T04:30:09.416Z,100.00
2023-01-18T04:31:12.679Z,100.00
2023-01-18T04:32:15.551Z,100.00
2023-01-18T04:33:27.000Z,100.00
2023-01-18T04:34:29.931Z,100.00
2023-01-18T04:35:32.974Z,100.00
2023-01-18T04:36:36.094Z,100.00
2023-01-18T04:37:39.170Z,100.00
2023-01-18T04:38:42.219Z,100.00
2023-01-18T04:39:47.936Z,100.00
2023-01-18T04:40:51.058Z,100.00
2023-01-18T04:41:55.733Z,100.00
2023-01-18T04:43:00.466Z,100.00
2023-01-18T04:44:03.701Z,100.00
2023-01-18T04:45:07.215Z,100.00
2023-01-18T04:46:10.491Z,100.00
2023-01-18T04:47:13.407Z,100.00
2023-01-18T04:48:16.297Z,100.00
2023-01-18T04:49:19.621Z,100.00
2023-01-18T04:50:22.736Z,100.00
2023-01-18T04:51:26.018Z,100.00
2023-01-18T04:52:32.459Z,100.00
2023-01-18T04:53:35.477Z,100.00
2023-01-18T04:54:38.302Z,100.00
2023-01-18T04:55:41.176Z,100.00
2023-01-18T04:56:44.431Z,100.00
2023-01-18T04:57:47.572Z,100.00
2023-01-18T04:58:53.945Z,100.00
2023-01-18T04:59:56.900Z,100.00
2023-01-18T05:01:05.123Z,100.00
2023-01-18T05:02:08.378Z,100.00
2023-01-18T05:03:13.170Z,100.00
2023-01-18T05:04:16.189Z,100.00
2023-01-18T05:05:19.171Z,100.00
2023-01-18T05:06:22.816Z,100.00
2023-01-18T05:07:26.217Z,100.00
2023-01-18T05:08:29.155Z,100.00
2023-01-18T05:09:32.284Z,100.00
2023-01-18T05:10:35.497Z,100.00
2023-01-18T05:11:38.317Z,100.00
2023-01-18T05:12:41.459Z,100.00
2023-01-18T05:13:45.263Z,100.00
2023-01-18T05:14:48.216Z,100.00
2023-01-18T05:15:51.598Z,100.00
2023-01-18T05:16:54.626Z,100.00
2023-01-18T05:17:57.585Z,100.00
2023-01-18T05:19:00.551Z,100.00
2023-01-18T05:20:06.525Z,100.00
2023-01-18T05:21:09.880Z,100.00
2023-01-18T05:22:13.267Z,100.00
2023-01-18T05:23:16.435Z,100.00
2023-01-18T05:24:19.470Z,100.00
2023-01-18T05:25:22.494Z,100.00
2023-01-18T05:26:25.463Z,100.00
2023-01-18T05:27:28.579Z,100.00
2023-01-18T05:28:32.240Z,100.00
2023-01-18T05:29:35.409Z,100.00
2023-01-18T05:30:40.741Z,100.00
2023-01-18T05:31:43.904Z,100.00
2023-01-18T05:32:47.004Z,100.00
2023-01-18T05:33:50.402Z,100.00
2023-01-18T05:34:53.366Z,100.00
2023-01-18T05:35:56.278Z,100.00
2023-01-18T05:37:01.327Z,100.00
2023-01-18T05:38:04.297Z,100.00
2023-01-18T05:39:09.680Z,100.00
2023-01-18T05:40:13.361Z,100.00
2023-01-18T05:41:16.441Z,100.00
2023-01-18T05:42:19.570Z,100.00
2023-01-18T05:43:24.256Z,100.00
2023-01-18T05:44:27.175Z,100.00
2023-01-18T05:45:30.276Z,100.00
2023-01-18T05:46:33.522Z,100.00
2023-01-18T05:47:36.779Z,100.00
2023-01-18T05:48:40.263Z,100.00
2023-01-18T05:49:43.115Z,100.00
2023-01-18T05:50:48.645Z,100.00
2023-01-18T05:51:51.914Z,100.00
2023-01-18T05:52:54.741Z,100.00
2023-01-18T05:53:57.848Z,100.00
2023-01-18T05:55:00.809Z,100.00
2023-01-18T05:56:06.577Z,100.00
2023-01-18T05:57:09.455Z,100.00
2023-01-18T05:58:12.586Z,100.00
2023-01-18T05:59:15.971Z,100.00
2023-01-18T06:00:19.632Z,100.00
2023-01-18T06:01:22.595Z,100.00
2023-01-18T06:02:26.005Z,100.00
2023-01-18T06:03:28.879Z,100.00
2023-01-18T06:04:31.884Z,100.00
2023-01-18T06:05:34.964Z,100.00
2023-01-18T06:06:38.123Z,100.00
2023-01-18T06:07:42.463Z,100.00
2023-01-18T06:08:50.222Z,100.00
2023-01-18T06:09:53.131Z,100.00
2023-01-18T06:10:57.857Z,100.00
2023-01-18T06:12:00.921Z,100.00
2023-01-18T06:13:03.838Z,100.00
2023-01-18T06:14:06.916Z,100.00
2023-01-18T06:15:10.790Z,100.00
2023-01-18T06:16:13.896Z,100.00
2023-01-18T06:17:17.262Z,100.00
2023-01-18T06:18:20.976Z,100.00
2023-01-18T06:19:24.136Z,100.00
2023-01-18T06:20:30.655Z,100.00
2023-01-18T06:21:33.559Z,100.00
2023-01-18T06:22:36.661Z,100.00
2023-01-18T06:23:39.675Z,100.00
2023-01-18T06:24:42.556Z,100.00
2023-01-18T06:25:45.602Z,100.00
2023-01-18T06:26:48.593Z,100.00
2023-01-18T06:27:52.112Z,100.00
2023-01-18T06:28:55.192Z,100.00
2023-01-18T06:29:58.302Z,100.00
2023-01-18T06:31:04.983Z,100.00
2023-01-18T06:32:07.863Z,100.00
2023-01-18T06:33:10.782Z,100.00
2023-01-18T06:34:14.227Z,100.00
2023-01-18T06:35:17.123Z,100.00
2023-01-18T06:36:20.155Z,100.00
2023-01-18T06:37:23.106Z,100.00
2023-01-18T06:38:26.183Z,100.00
2023-01-18T06:39:29.618Z,100.00
2023-01-18T06:40:36.060Z,100.00
2023-01-18T06:41:39.379Z,100.00
2023-01-18T06:42:42.391Z,100.00
2023-01-18T06:43:45.262Z,100.00
2023-01-18T06:44:48.243Z,100.00
2023-01-18T06:45:56.111Z,100.00
2023-01-18T06:46:59.282Z,100.00
2023-01-18T06:48:03.629Z,100.00
2023-01-18T06:49:06.938Z,100.00
2023-01-18T06:50:11.417Z,100.00
2023-01-18T06:51:15.142Z,100.00
2023-01-18T06:52:18.273Z,100.00
2023-01-18T06:53:21.802Z,100.00
2023-01-18T06:54:24.923Z,100.00
2023-01-18T06:55:28.165Z,100.00
2023-01-18T06:56:31.565Z,100.00
2023-01-18T06:57:34.701Z,100.00
2023-01-18T06:58:38.072Z,100.00
2023-01-18T06:59:41.696Z,100.00
2023-01-18T07:00:44.654Z,100.00
2023-01-18T07:01:48.140Z,100.00
2023-01-18T07:02:53.845Z,100.00
2023-01-18T07:03:56.887Z,100.00
2023-01-18T07:05:00.237Z,100.00
2023-01-18T07:06:04.593Z,100.00
2023-01-18T07:07:08.135Z,100.00
2023-01-18T07:08:11.485Z,100.00
2023-01-18T07:09:14.776Z,100.00
2023-01-18T07:10:17.924Z,100.00
2023-01-18T07:11:20.880Z,100.00
2023-01-18T07:12:23.929Z,100.00
2023-01-18T07:13:27.311Z,100.00
2023-01-18T07:14:30.252Z,100.00
2023-01-18T07:15:33.369Z,100.00
2023-01-18T07:16:36.714Z,100.00
2023-01-18T07:17:40.026Z,100.00
2023-01-18T07:18:45.146Z,100.00
2023-01-18T07:19:48.613Z,100.00
2023-01-18T07:21:03.593Z,100.00
2023-01-18T07:22:06.875Z,100.00
2023-01-18T07:23:09.806Z,100.00
2023-01-18T07:24:13.205Z,100.00
2023-01-18T07:25:18.978Z,100.00
2023-01-18T07:26:21.905Z,100.00
2023-01-18T07:27:28.294Z,100.00
2023-01-18T07:28:34.703Z,100.00
2023-01-18T07:29:37.699Z,100.00
2023-01-18T07:30:40.732Z,100.00
2023-01-18T07:31:43.671Z,100.00
2023-01-18T07:32:52.208Z,100.00
2023-01-18T07:33:55.196Z,100.00
2023-01-18T07:34:59.536Z,100.00
2023-01-18T07:36:06.162Z,100.00
2023-01-18T07:37:09.207Z,100.00
2023-01-18T07:38:12.220Z,100.00
2023-01-18T07:39:15.506Z,100.00
2023-01-18T07:40:21.104Z,100.00
2023-01-18T07:41:24.539Z,100.00
2023-01-18T07:42:27.655Z,100.00
2023-01-18T07:43:34.220Z,100.00
2023-01-18T07:44:37.949Z,100.00
2023-01-18T07:45:40.976Z,100.00
2023-01-18T07:46:44.171Z,100.00
2023-01-18T07:47:47.328Z,100.00
2023-01-18T07:48:50.310Z,100.00
2023-01-18T07:49:53.452Z,100.00
2023-01-18T07:51:01.156Z,100.00
2023-01-18T07:52:04.570Z,100.00
2023-01-18T07:53:09.498Z,100.00
2023-01-18T07:54:12.494Z,100.00
2023-01-18T07:55:15.362Z,100.00
2023-01-18T07:56:23.183Z,100.00
2023-01-18T07:57:26.124Z,100.00
2023-01-18T07:58:29.959Z,100.00
2023-01-18T07:59:33.776Z,100.00
2023-01-18T08:00:36.744Z,100.00
2023-01-18T08:01:39.979Z,100.00
2023-01-18T08:02:42.954Z,100.00
2023-01-18T08:03:50.132Z,100.00
2023-01-18T08:04:53.133Z,100.00
2023-01-18T08:06:02.035Z,100.00
2023-01-18T08:07:05.616Z,100.00
2023-01-18T08:08:11.363Z,100.00
2023-01-18T08:09:14.422Z,100.00
2023-01-18T08:10:18.508Z,100.00
2023-01-18T08:11:21.661Z,100.00
2023-01-18T08:12:25.150Z,100.00
2023-01-18T08:13:28.653Z,100.00
2023-01-18T08:14:31.539Z,100.00
2023-01-18T08:15:34.519Z,100.00
2023-01-18T08:16:37.665Z,100.00
2023-01-18T08:17:41.070Z,100.00
2023-01-18T08:18:46.041Z,100.00
2023-01-18T08:19:49.182Z,100.00
2023-01-18T08:20:55.011Z,100.00
2023-01-18T08:21:58.821Z,100.00
2023-01-18T08:23:02.708Z,100.00
2023-01-18T08:24:05.962Z,100.00
2023-01-18T08:25:10.058Z,100.00
2023-01-18T08:26:15.391Z,100.00
2023-01-18T08:27:18.339Z,100.00
2023-01-18T08:28:21.322Z,100.00
2023-01-18T08:29:24.481Z,100.00
2023-01-18T08:30:34.247Z,100.00
2023-01-18T08:31:37.709Z,100.00
2023-01-18T08:32:41.409Z,100.00
2023-01-18T08:33:47.875Z,100.00
2023-01-18T08:34:50.970Z,100.00
2023-01-18T08:35:54.082Z,100.00
2023-01-18T08:36:57.278Z,100.00
2023-01-18T08:38:01.787Z,100.00
2023-01-18T08:39:11.065Z,100.00
2023-01-18T08:40:14.141Z,100.00
2023-01-18T08:41:17.290Z,100.00
2023-01-18T08:42:20.265Z,100.00
2023-01-18T08:43:24.402Z,100.00
2023-01-18T08:44:27.213Z,100.00
2023-01-18T08:45:30.502Z,100.00
2023-01-18T08:46:33.674Z,100.00
2023-01-18T08:47:36.605Z,100.00
2023-01-18T08:48:39.547Z,100.00
2023-01-18T08:49:42.532Z,100.00
2023-01-18T08:50:46.701Z,100.00
2023-01-18T08:51:49.653Z,100.00
2023-01-18T08:52:53.885Z,100.00
2023-01-18T08:53:57.575Z,100.00
2023-01-18T08:55:02.040Z,100.00
2023-01-18T08:56:08.375Z,100.00
2023-01-18T08:57:11.607Z,100.00
2023-01-18T08:58:14.669Z,100.00
2023-01-18T08:59:18.080Z,100.00
2023-01-18T09:00:24.685Z,100.00
2023-01-18T09:01:30.208Z,100.00
2023-01-18T09:02:33.534Z,100.00
2023-01-18T09:03:38.822Z,100.00
2023-01-18T09:04:42.620Z,100.00
2023-01-18T09:05:45.999Z,100.00
2023-01-18T09:06:53.788Z,100.00
2023-01-18T09:07:58.359Z,100.00
2023-01-18T09:09:04.166Z,100.00
2023-01-18T09:10:09.481Z,100.00
2023-01-18T09:11:13.148Z,100.00
2023-01-18T09:12:16.370Z,100.00
2023-01-18T09:13:21.133Z,100.00
2023-01-18T09:14:24.553Z,100.00
2023-01-18T09:15:27.454Z,100.00
2023-01-18T09:16:31.981Z,100.00
2023-01-18T09:17:35.056Z,100.00
2023-01-18T09:18:39.472Z,100.00
2023-01-18T09:19:45.416Z,100.00
2023-01-18T09:20:48.325Z,100.00
2023-01-18T09:21:55.250Z,100.00
2023-01-18T09:23:05.594Z,100.00
2023-01-18T09:24:08.724Z,100.00
2023-01-18T09:25:12.054Z,100.00
2023-01-18T09:26:17.643Z,100.00
2023-01-18T09:27:20.967Z,100.00
2023-01-18T09:28:24.492Z,100.00
2023-01-18T09:29:27.918Z,100.00
2023-01-18T09:30:32.294Z,100.00
2023-01-18T09:31:35.691Z,100.00
2023-01-18T09:32:40.238Z,100.00
2023-01-18T09:33:52.884Z,100.00
2023-01-18T09:34:56.997Z,100.00
2023-01-18T09:36:04.070Z,100.00
2023-01-18T09:37:07.185Z,100.00
2023-01-18T09:38:12.703Z,100.00
2023-01-18T09:39:16.518Z,100.00
2023-01-18T09:40:24.078Z,100.00
2023-01-18T09:41:29.998Z,100.00
2023-01-18T09:42:41.482Z,100.00
2023-01-18T09:43:50.229Z,100.00
2023-01-18T09:44:58.941Z,100.00
2023-01-18T09:46:02.322Z,100.00
2023-01-18T09:47:11.090Z,100.00
2023-01-18T09:48:36.023Z,100.00
2023-01-18T09:49:55.332Z,100.00
2023-01-18T09:51:06.660Z,100.00
2023-01-18T09:52:21.876Z,100.00
2023-01-18T09:53:56.343Z,100.00
2023-01-18T09:55:43.488Z,100.00
2023-01-18T09:57:07.131Z,100.00
2023-01-18T09:58:28.248Z,100.00
2023-01-18T10:00:11.491Z,100.00
2023-01-18T10:01:26.448Z,100.00
2023-01-18T10:02:38.423Z,100.00
2023-01-18T10:03:47.271Z,100.00
2023-01-18T10:05:15.686Z,100.00
2023-01-18T10:06:33.628Z,100.00
2023-01-18T10:07:47.690Z,100.00
2023-01-18T10:09:06.950Z,100.00
2023-01-18T10:10:16.449Z,100.00
2023-01-18T10:11:28.297Z,100.00
2023-01-18T10:12:44.906Z,100.00
2023-01-18T10:14:03.593Z,100.00
2023-01-18T10:15:12.540Z,100.00
2023-01-18T10:16:15.903Z,100.00
2023-01-18T10:17:23.264Z,100.00
2023-01-18T10:18:26.449Z,100.00
2023-01-18T10:19:32.084Z,100.00
2023-01-18T10:20:56.411Z,100.00
2023-01-18T10:22:07.289Z,100.00
2023-01-18T10:23:46.906Z,100.00
2023-01-18T10:25:24.493Z,100.00
2023-01-18T10:26:31.759Z,100.00
2023-01-18T10:27:53.338Z,100.00
2023-01-18T10:29:35.432Z,100.00
2023-01-18T10:31:03.066Z,100.00
2023-01-18T10:32:14.582Z,100.00
2023-01-18T10:33:20.599Z,100.00
2023-01-18T10:34:28.108Z,100.00
2023-01-18T10:35:37.041Z,100.00
2023-01-18T10:36:44.716Z,100.00
2023-01-18T10:37:48.003Z,100.00
2023-01-18T10:38:54.207Z,100.00
2023-01-18T10:40:02.184Z,100.00
2023-01-18T10:41:05.689Z,100.00
2023-01-18T10:42:30.776Z,100.00
2023-01-18T10:43:34.156Z,100.00
2023-01-18T10:44:37.956Z,100.00
2023-01-18T10:45:41.198Z,100.00
2023-01-18T10:46:46.180Z,100.00
2023-01-18T10:47:50.987Z,100.00
2023-01-18T10:48:55.335Z,100.00
2023-01-18T10:49:59.918Z,100.00
2023-01-18T10:51:08.209Z,100.00
2023-01-18T10:52:27.598Z,100.00
2023-01-18T10:53:33.101Z,100.00
2023-01-18T10:54:36.418Z,100.00
2023-01-18T10:55:39.418Z,100.00
2023-01-18T10:56:42.626Z,100.00
2023-01-18T10:57:52.452Z,100.00
2023-01-18T10:58:59.255Z,100.00
2023-01-18T11:00:12.773Z,100.00
2023-01-18T11:01:27.858Z,100.00
2023-01-18T11:02:36.797Z,100.00
2023-01-18T11:03:46.905Z,99.55
2023-01-18T11:04:57.382Z,99.31
2023-01-18T11:06:06.175Z,99.00
2023-01-18T11:07:11.203Z,98.63
2023-01-18T11:08:33.810Z,98.81
2023-01-18T11:09:55.777Z,98.73
2023-01-18T11:11:00.197Z,98.99
2023-01-18T11:12:39.081Z,99.41
2023-01-18T11:13:44.679Z,99.18
2023-01-18T11:14:50.396Z,98.89
2023-01-18T11:16:16.245Z,99.27
2023-01-18T11:17:19.450Z,99.47
2023-01-18T11:18:22.524Z,99.29
2023-01-18T11:19:26.395Z,99.38
2023-01-18T11:20:39.400Z,99.60
2023-01-18T11:21:51.691Z,98.60
2023-01-18T11:22:59.496Z,98.46
2023-01-18T11:24:09.974Z,98.30
2023-01-18T11:25:17.658Z,97.97
2023-01-18T11:26:23.714Z,97.44
2023-01-18T11:27:26.856Z,96.44
2023-01-18T11:28:52.599Z,96.36
2023-01-18T11:29:58.392Z,96.22
2023-01-18T11:31:17.640Z,96.11
2023-01-18T11:32:31.076Z,96.00
2023-01-18T11:33:34.974Z,95.86
2023-01-18T11:34:42.965Z,95.35
2023-01-18T11:35:45.951Z,93.83
2023-01-18T11:36:50.186Z,92.42
2023-01-18T11:37:59.589Z,92.47
2023-01-18T11:39:24.968Z,92.39
2023-01-18T11:40:32.570Z,91.97
2023-01-18T11:41:35.622Z,91.92
2023-01-18T11:42:40.477Z,92.22
2023-01-18T11:43:57.781Z,92.16
2023-01-18T11:45:21.563Z,92.53
2023-01-18T11:46:41.220Z,92.43
2023-01-18T11:47:57.310Z,92.25
2023-01-18T11:49:16.089Z,92.27
2023-01-18T11:50:26.313Z,90.65
2023-01-18T11:51:39.178Z,90.97
2023-01-18T11:53:31.133Z,91.47
2023-01-18T11:54:36.682Z,91.28
2023-01-18T11:56:02.342Z,91.96
2023-01-18T11:57:07.779Z,91.61
2023-01-18T11:58:27.095Z,89.64
2023-01-18T11:59:42.241Z,87.94
2023-01-18T12:00:59.560Z,88.06
2023-01-18T12:02:31.283Z,88.71
2023-01-18T12:03:46.484Z,88.67
2023-01-18T12:05:08.008Z,88.89
2023-01-18T12:06:34.078Z,88.91
2023-01-18T12:08:00.774Z,87.48
2023-01-18T12:09:17.186Z,88.10
2023-01-18T12:10:58.260Z,88.77
2023-01-18T12:12:26.856Z,89.79
2023-01-18T12:13:47.035Z,89.84
2023-01-18T12:15:07.993Z,89.35
2023-01-18T12:16:25.827Z,89.09
2023-01-18T12:17:47.824Z,89.13
2023-01-18T12:19:23.199Z,88.72
2023-01-18T12:20:59.204Z,88.16
2023-01-18T12:22:26.747Z,87.50
2023-01-18T12:23:29.508Z,87.49
2023-01-18T12:25:00.077Z,86.97
2023-01-18T12:26:17.106Z,84.92
2023-01-18T12:27:26.134Z,85.09
2023-01-18T12:29:13.531Z,85.34
2023-01-18T12:30:28.584Z,85.63
2023-01-18T12:31:49.731Z,86.26
2023-01-18T12:33:42.344Z,86.65
2023-01-18T12:35:24.243Z,87.90
2023-01-18T12:37:02.177Z,86.43
2023-01-18T12:38:19.840Z,86.75
2023-01-18T12:39:41.135Z,87.20
2023-01-18T12:40:53.801Z,86.79
2023-01-18T12:42:00.990Z,87.01
2023-01-18T12:43:14.462Z,87.02
2023-01-18T12:44:21.158Z,86.54
2023-01-18T12:45:39.913Z,86.07
2023-01-18T12:46:55.485Z,86.05
2023-01-18T12:48:09.260Z,84.99
2023-01-18T12:49:19.182Z,84.93
2023-01-18T12:50:26.134Z,84.32
2023-01-18T12:51:34.507Z,83.11
2023-01-18T12:52:45.874Z,80.83
2023-01-18T12:54:16.375Z,81.55
2023-01-18T12:55:23.180Z,82.90
2023-01-18T12:56:34.529Z,83.47
2023-01-18T12:57:37.614Z,82.22
2023-01-18T12:58:41.935Z,82.93
2023-01-18T13:00:06.543Z,82.62
2023-01-18T13:01:20.624Z,82.74
2023-01-18T13:02:45.997Z,82.89
2023-01-18T13:03:54.131Z,79.58
2023-01-18T13:05:11.310Z,80.25
2023-01-18T13:06:17.247Z,81.35
2023-01-18T13:07:27.398Z,81.91
2023-01-18T13:08:49.134Z,82.37
2023-01-18T13:09:52.506Z,81.92
2023-01-18T13:11:06.046Z,81.97
2023-01-18T13:12:09.752Z,82.12
2023-01-18T13:13:20.242Z,82.04
2023-01-18T13:15:18.762Z,82.01
2023-01-18T13:16:57.141Z,82.12
2023-01-18T13:18:11.298Z,82.34
2023-01-18T13:19:23.996Z,82.10
2023-01-18T13:20:44.362Z,82.39
2023-01-18T13:22:00.519Z,82.54
2023-01-18T13:23:12.151Z,82.12
2023-01-18T13:24:14.864Z,82.97
2023-01-18T13:25:20.501Z,83.29
2023-01-18T13:26:31.325Z,83.73
2023-01-18T13:27:34.639Z,84.29
2023-01-18T13:28:38.694Z,85.30
2023-01-18T13:29:44.060Z,85.15
2023-01-18T13:30:47.243Z,85.12
2023-01-18T13:31:50.723Z,85.20
2023-01-18T13:32:53.966Z,85.25
2023-01-18T13:33:58.156Z,85.35
2023-01-18T13:35:20.577Z,85.45
2023-01-18T13:36:24.689Z,85.71
2023-01-18T13:37:46.157Z,85.99
2023-01-18T13:39:03.599Z,86.35
2023-01-18T13:40:07.692Z,86.56
2023-01-18T13:41:14.020Z,86.84
2023-01-18T13:42:26.685Z,87.09
2023-01-18T13:43:54.072Z,87.26
2023-01-18T13:45:19.667Z,87.26
2023-01-18T13:46:26.647Z,88.34
2023-01-18T13:47:47.415Z,88.11
2023-01-18T13:48:54.742Z,87.87
2023-01-18T13:49:57.778Z,87.93
2023-01-18T13:51:01.169Z,87.89
2023-01-18T13:52:31.741Z,87.49
2023-01-18T13:53:50.538Z,87.15
2023-01-18T13:54:56.261Z,87.01
2023-01-18T13:56:05.299Z,87.20
2023-01-18T13:57:09.853Z,87.28
2023-01-18T13:58:32.716Z,87.21
2023-01-18T13:59:38.833Z,87.36
2023-01-18T14:00:48.315Z,87.14
2023-01-18T14:01:52.976Z,87.48
2023-01-18T14:03:14.773Z,88.00
2023-01-18T14:04:26.519Z,87.81
2023-01-18T14:05:34.443Z,87.75
2023-01-18T14:06:43.590Z,87.56
2023-01-18T14:07:50.741Z,87.59
2023-01-18T14:09:14.928Z,87.90
2023-01-18T14:10:33.338Z,88.42
2023-01-18T14:11:42.399Z,88.33
2023-01-18T14:12:47.999Z,88.25
2023-01-18T14:13:53.744Z,88.66
2023-01-18T14:15:02.889Z,88.75
2023-01-18T14:16:06.461Z,88.76
2023-01-18T14:17:15.851Z,88.69
2023-01-18T14:18:27.937Z,88.83
2023-01-18T14:20:00.082Z,88.98
2023-01-18T14:21:05.820Z,89.23
2023-01-18T14:22:25.709Z,89.73
2023-01-18T14:23:59.514Z,89.48
2023-01-18T14:25:22.473Z,89.65
2023-01-18T14:26:32.278Z,89.95
2023-01-18T14:27:43.596Z,90.10
2023-01-18T14:28:51.792Z,90.14